Hlavní strana
METAR-TAF:

METAR-TAF

Letiště :

Bonaire, Nizozemské Antily

zeměpisná šířka: 12-09N, zeměpisná délka: 068-17W, výška: 6 m

Aktuální stav počasí

Zpráva byla vytvořena před 1 hodinou a 0 minutami, v 06:55 UTC
Východní vítr 4 kt
Teplota 26°C
Vlhkost vzduchu 84%
Tlak 1012 hPa
Viditelnost 10 km a více

METAR: TNCB 080655Z AUTO 08004KT 9999 FEW027/// 26/23 Q1012

Čas: 03:55 (07:55 UTC)

Předpověď počasí

Zpráva byla vytvořena před 2 hodinami a 55 minutami, v 05:00 UTC
Předpověď platná od 08 v 06 UTC do 09 v 12 UTC
Východní vítr 11 kt
Viditelnost 10 km a více
Polojasno ve výšce 1800 ft
Pravděpodobnost 30% :
Dočasný
od 08 v 06 UTC do 08 v 18 UTC
Viditelnost: 6000 m
Polojasno ve výšce 1500 ft, Cumulonimbus.
dešťové přeháňky

TAF: TNCB 080500Z 0806/0912 08011KT 9999 SCT018 PROB30 TEMPO 0806/0818 6000 SHRA SCT015CB

Stav a předpovědi počasí z více než 4 000 letišť (zprávy METAR a TAF).

Červené a žluté tečky na mapě představují dostupné meteorologické stanice.

Když kurzor umístíte na tečku, zobrazí se název stanice.

Pak kliknutím zobrazíte stav a předpověď počasí.

Chcete-li změnit mapu, kliknutím na zelené tlačítko se znaménkem +mapu přiblížíte, kliknutím na zelené tlačítko se znaménkem – mapu oddálíte a kliknutím na zelené šipky přejdete na sousední mapy.


METAR-TAF: